sensor_id;sensor_type;location;lat;lon;timestamp;P1;durP1;ratioP1;P2;durP2;ratioP2
31730;SDS011;18310;55.586;12.286;2022-09-02T00:00:26;1.27;;;0.68;;
31730;SDS011;18310;55.586;12.286;2022-09-02T00:03:31;1.58;;;0.63;;
31730;SDS011;18310;55.586;12.286;2022-09-02T00:06:38;1.38;;;0.60;;
31730;SDS011;18310;55.586;12.286;2022-09-02T00:09:43;2.17;;;0.80;;
31730;SDS011;18310;55.586;12.286;2022-09-02T00:12:47;2.88;;;0.70;;
31730;SDS011;18310;55.586;12.286;2022-09-02T00:15:50;1.70;;;0.70;;
31730;SDS011;18310;55.586;12.286;2022-09-02T00:18:55;5.25;;;0.82;;
31730;SDS011;18310;55.586;12.286;2022-09-02T00:22:00;1.70;;;0.83;;
31730;SDS011;18310;55.586;12.286;2022-09-02T00:25:04;2.03;;;0.90;;
31730;SDS011;18310;55.586;12.286;2022-09-02T00:28:10;7.18;;;0.95;;
31730;SDS011;18310;55.586;12.286;2022-09-02T00:31:16;1.83;;;0.73;;
31730;SDS011;18310;55.586;12.286;2022-09-02T00:34:20;2.45;;;0.70;;
31730;SDS011;18310;55.586;12.286;2022-09-02T00:37:25;1.47;;;0.80;;
31730;SDS011;18310;55.586;12.286;2022-09-02T00:40:29;2.00;;;0.70;;
31730;SDS011;18310;55.586;12.286;2022-09-02T00:43:38;2.67;;;0.57;;
31730;SDS011;18310;55.586;12.286;2022-09-02T00:46:46;1.88;;;0.70;;
31730;SDS011;18310;55.586;12.286;2022-09-02T00:49:50;1.80;;;0.77;;
31730;SDS011;18310;55.586;12.286;2022-09-02T00:52:59;2.45;;;0.60;;
31730;SDS011;18310;55.586;12.286;2022-09-02T00:56:09;2.17;;;0.73;;
31730;SDS011;18310;55.586;12.286;2022-09-02T00:59:19;1.80;;;0.73;;
31730;SDS011;18310;55.586;12.286;2022-09-02T01:02:28;1.02;;;0.50;;
31730;SDS011;18310;55.586;12.286;2022-09-02T01:05:38;2.08;;;0.70;;
31730;SDS011;18310;55.586;12.286;2022-09-02T01:08:48;1.88;;;0.73;;
31730;SDS011;18310;55.586;12.286;2022-09-02T01:11:59;3.10;;;0.77;;
31730;SDS011;18310;55.586;12.286;2022-09-02T01:15:04;1.88;;;0.77;;
31730;SDS011;18310;55.586;12.286;2022-09-02T01:18:12;1.63;;;0.63;;
31730;SDS011;18310;55.586;12.286;2022-09-02T01:21:20;1.80;;;0.80;;
31730;SDS011;18310;55.586;12.286;2022-09-02T01:24:27;2.10;;;0.85;;
31730;SDS011;18310;55.586;12.286;2022-09-02T01:27:33;4.18;;;1.27;;
31730;SDS011;18310;55.586;12.286;2022-09-02T01:30:37;3.17;;;1.08;;
31730;SDS011;18310;55.586;12.286;2022-09-02T01:33:45;4.97;;;0.85;;
31730;SDS011;18310;55.586;12.286;2022-09-02T01:36:49;2.10;;;0.98;;
31730;SDS011;18310;55.586;12.286;2022-09-02T01:39:54;4.53;;;1.00;;
31730;SDS011;18310;55.586;12.286;2022-09-02T01:42:59;2.25;;;1.00;;
31730;SDS011;18310;55.586;12.286;2022-09-02T01:46:07;3.25;;;1.35;;
31730;SDS011;18310;55.586;12.286;2022-09-02T01:49:11;2.83;;;1.10;;
31730;SDS011;18310;55.586;12.286;2022-09-02T01:52:14;2.20;;;0.97;;
31730;SDS011;18310;55.586;12.286;2022-09-02T01:55:20;2.40;;;1.00;;
31730;SDS011;18310;55.586;12.286;2022-09-02T01:58:24;2.20;;;1.00;;
31730;SDS011;18310;55.586;12.286;2022-09-02T02:01:27;2.35;;;0.93;;
31730;SDS011;18310;55.586;12.286;2022-09-02T02:07:36;1.85;;;0.77;;
31730;SDS011;18310;55.586;12.286;2022-09-02T02:10:41;1.77;;;0.70;;
31730;SDS011;18310;55.586;12.286;2022-09-02T02:13:45;1.95;;;0.90;;
31730;SDS011;18310;55.586;12.286;2022-09-02T02:16:49;1.75;;;0.70;;
31730;SDS011;18310;55.586;12.286;2022-09-02T02:19:54;2.63;;;0.77;;
31730;SDS011;18310;55.586;12.286;2022-09-02T02:22:57;1.38;;;0.70;;
31730;SDS011;18310;55.586;12.286;2022-09-02T02:26:03;2.42;;;1.02;;
31730;SDS011;18310;55.586;12.286;2022-09-02T02:29:06;6.20;;;1.10;;
31730;SDS011;18310;55.586;12.286;2022-09-02T02:32:10;3.80;;;1.05;;
31730;SDS011;18310;55.586;12.286;2022-09-02T02:35:14;1.95;;;0.95;;
31730;SDS011;18310;55.586;12.286;2022-09-02T02:38:18;2.47;;;1.20;;
31730;SDS011;18310;55.586;12.286;2022-09-02T02:41:23;2.60;;;0.95;;
31730;SDS011;18310;55.586;12.286;2022-09-02T02:44:27;5.50;;;1.25;;
31730;SDS011;18310;55.586;12.286;2022-09-02T02:47:31;2.50;;;1.20;;
31730;SDS011;18310;55.586;12.286;2022-09-02T02:50:35;2.90;;;1.20;;
31730;SDS011;18310;55.586;12.286;2022-09-02T02:53:39;3.92;;;1.17;;
31730;SDS011;18310;55.586;12.286;2022-09-02T02:56:44;2.22;;;0.95;;
31730;SDS011;18310;55.586;12.286;2022-09-02T02:59:47;2.20;;;1.10;;
31730;SDS011;18310;55.586;12.286;2022-09-02T03:02:53;3.50;;;1.20;;
31730;SDS011;18310;55.586;12.286;2022-09-02T03:05:58;2.75;;;1.40;;
31730;SDS011;18310;55.586;12.286;2022-09-02T03:09:03;3.85;;;1.42;;
31730;SDS011;18310;55.586;12.286;2022-09-02T03:12:08;2.53;;;1.10;;
31730;SDS011;18310;55.586;12.286;2022-09-02T03:15:14;2.38;;;1.27;;
31730;SDS011;18310;55.586;12.286;2022-09-02T03:18:19;3.63;;;1.10;;
31730;SDS011;18310;55.586;12.286;2022-09-02T03:21:23;1.80;;;0.95;;
31730;SDS011;18310;55.586;12.286;2022-09-02T03:24:26;2.83;;;1.10;;
31730;SDS011;18310;55.586;12.286;2022-09-02T03:27:32;5.30;;;1.50;;
31730;SDS011;18310;55.586;12.286;2022-09-02T03:30:35;3.22;;;1.40;;
31730;SDS011;18310;55.586;12.286;2022-09-02T03:33:41;2.78;;;1.30;;
31730;SDS011;18310;55.586;12.286;2022-09-02T03:36:44;2.15;;;1.10;;
31730;SDS011;18310;55.586;12.286;2022-09-02T03:39:48;3.53;;;1.20;;
31730;SDS011;18310;55.586;12.286;2022-09-02T03:42:54;2.05;;;1.08;;
31730;SDS011;18310;55.586;12.286;2022-09-02T03:46:00;2.58;;;1.40;;
31730;SDS011;18310;55.586;12.286;2022-09-02T03:49:05;3.22;;;1.60;;
31730;SDS011;18310;55.586;12.286;2022-09-02T03:55:13;3.70;;;1.42;;
31730;SDS011;18310;55.586;12.286;2022-09-02T03:58:19;8.95;;;2.28;;
31730;SDS011;18310;55.586;12.286;2022-09-02T04:01:24;2.85;;;1.48;;
31730;SDS011;18310;55.586;12.286;2022-09-02T04:04:35;3.67;;;1.90;;
31730;SDS011;18310;55.586;12.286;2022-09-02T04:07:39;2.58;;;1.17;;
31730;SDS011;18310;55.586;12.286;2022-09-02T04:10:47;3.60;;;1.35;;
31730;SDS011;18310;55.586;12.286;2022-09-02T04:13:52;2.83;;;1.30;;
31730;SDS011;18310;55.586;12.286;2022-09-02T04:16:55;5.25;;;1.77;;
31730;SDS011;18310;55.586;12.286;2022-09-02T04:19:59;3.73;;;1.47;;
31730;SDS011;18310;55.586;12.286;2022-09-02T04:23:02;3.47;;;1.60;;
31730;SDS011;18310;55.586;12.286;2022-09-02T04:26:07;2.53;;;1.40;;
31730;SDS011;18310;55.586;12.286;2022-09-02T04:29:15;2.70;;;1.30;;
31730;SDS011;18310;55.586;12.286;2022-09-02T04:32:19;2.65;;;1.50;;
31730;SDS011;18310;55.586;12.286;2022-09-02T04:35:23;2.80;;;1.43;;
31730;SDS011;18310;55.586;12.286;2022-09-02T04:38:26;4.33;;;1.50;;
31730;SDS011;18310;55.586;12.286;2022-09-02T04:41:30;2.73;;;1.67;;
31730;SDS011;18310;55.586;12.286;2022-09-02T04:44:37;4.25;;;1.75;;
31730;SDS011;18310;55.586;12.286;2022-09-02T04:47:40;3.88;;;1.77;;
31730;SDS011;18310;55.586;12.286;2022-09-02T04:50:46;2.88;;;1.55;;
31730;SDS011;18310;55.586;12.286;2022-09-02T04:53:50;3.13;;;1.60;;
31730;SDS011;18310;55.586;12.286;2022-09-02T04:56:55;3.47;;;1.42;;
31730;SDS011;18310;55.586;12.286;2022-09-02T05:00:00;3.13;;;1.80;;
31730;SDS011;18310;55.586;12.286;2022-09-02T05:03:05;4.50;;;2.22;;
31730;SDS011;18310;55.586;12.286;2022-09-02T05:06:09;3.27;;;1.60;;
31730;SDS011;18310;55.586;12.286;2022-09-02T05:09:15;4.32;;;2.05;;
31730;SDS011;18310;55.586;12.286;2022-09-02T05:12:19;5.35;;;2.00;;
31730;SDS011;18310;55.586;12.286;2022-09-02T05:15:24;4.63;;;1.98;;
31730;SDS011;18310;55.586;12.286;2022-09-02T05:18:28;4.80;;;1.70;;
31730;SDS011;18310;55.586;12.286;2022-09-02T05:21:31;5.63;;;1.90;;
31730;SDS011;18310;55.586;12.286;2022-09-02T05:24:35;4.43;;;1.92;;
31730;SDS011;18310;55.586;12.286;2022-09-02T05:27:38;3.27;;;1.90;;
31730;SDS011;18310;55.586;12.286;2022-09-02T05:30:43;4.67;;;1.70;;
31730;SDS011;18310;55.586;12.286;2022-09-02T05:33:46;6.45;;;2.00;;
31730;SDS011;18310;55.586;12.286;2022-09-02T05:36:50;3.45;;;1.60;;
31730;SDS011;18310;55.586;12.286;2022-09-02T05:39:54;4.07;;;1.85;;
31730;SDS011;18310;55.586;12.286;2022-09-02T05:42:57;5.80;;;1.80;;
31730;SDS011;18310;55.586;12.286;2022-09-02T05:46:04;3.85;;;1.95;;
31730;SDS011;18310;55.586;12.286;2022-09-02T05:49:08;4.15;;;1.50;;
31730;SDS011;18310;55.586;12.286;2022-09-02T05:52:17;4.20;;;1.52;;
31730;SDS011;18310;55.586;12.286;2022-09-02T05:55:20;4.77;;;1.83;;
31730;SDS011;18310;55.586;12.286;2022-09-02T05:58:24;3.17;;;1.33;;
31730;SDS011;18310;55.586;12.286;2022-09-02T06:01:29;2.45;;;1.08;;
31730;SDS011;18310;55.586;12.286;2022-09-02T06:04:35;3.65;;;1.52;;
31730;SDS011;18310;55.586;12.286;2022-09-02T06:07:40;2.30;;;1.20;;
31730;SDS011;18310;55.586;12.286;2022-09-02T06:10:43;3.05;;;1.45;;
31730;SDS011;18310;55.586;12.286;2022-09-02T06:13:47;2.78;;;0.98;;
31730;SDS011;18310;55.586;12.286;2022-09-02T06:16:51;3.40;;;1.25;;
31730;SDS011;18310;55.586;12.286;2022-09-02T06:19:57;3.00;;;1.25;;
31730;SDS011;18310;55.586;12.286;2022-09-02T06:23:00;5.07;;;1.65;;
31730;SDS011;18310;55.586;12.286;2022-09-02T06:29:08;4.22;;;1.30;;
31730;SDS011;18310;55.586;12.286;2022-09-02T06:32:14;2.95;;;1.42;;
31730;SDS011;18310;55.586;12.286;2022-09-02T06:35:17;4.28;;;1.10;;
31730;SDS011;18310;55.586;12.286;2022-09-02T06:38:21;2.25;;;1.00;;
31730;SDS011;18310;55.586;12.286;2022-09-02T06:41:25;1.55;;;0.70;;
31730;SDS011;18310;55.586;12.286;2022-09-02T06:44:31;2.60;;;1.00;;
31730;SDS011;18310;55.586;12.286;2022-09-02T06:47:36;1.90;;;0.68;;
31730;SDS011;18310;55.586;12.286;2022-09-02T06:50:40;1.35;;;0.70;;
31730;SDS011;18310;55.586;12.286;2022-09-02T06:53:46;3.58;;;0.98;;
31730;SDS011;18310;55.586;12.286;2022-09-02T06:56:49;1.33;;;0.52;;
31730;SDS011;18310;55.586;12.286;2022-09-02T06:59:53;3.90;;;0.85;;
31730;SDS011;18310;55.586;12.286;2022-09-02T07:03:04;1.10;;;0.50;;
31730;SDS011;18310;55.586;12.286;2022-09-02T07:06:25;2.10;;;0.70;;
31730;SDS011;18310;55.586;12.286;2022-09-02T07:09:28;1.52;;;0.60;;
31730;SDS011;18310;55.586;12.286;2022-09-02T07:12:33;4.38;;;0.63;;
31730;SDS011;18310;55.586;12.286;2022-09-02T07:15:37;6.57;;;1.10;;
31730;SDS011;18310;55.586;12.286;2022-09-02T07:18:44;2.13;;;0.70;;
31730;SDS011;18310;55.586;12.286;2022-09-02T07:21:48;3.15;;;0.75;;
31730;SDS011;18310;55.586;12.286;2022-09-02T07:24:52;2.05;;;0.77;;
31730;SDS011;18310;55.586;12.286;2022-09-02T07:27:56;2.45;;;0.77;;
31730;SDS011;18310;55.586;12.286;2022-09-02T07:31:00;2.58;;;0.80;;
31730;SDS011;18310;55.586;12.286;2022-09-02T07:34:05;1.95;;;0.75;;
31730;SDS011;18310;55.586;12.286;2022-09-02T07:37:10;2.25;;;0.88;;
31730;SDS011;18310;55.586;12.286;2022-09-02T07:40:13;2.75;;;0.70;;
31730;SDS011;18310;55.586;12.286;2022-09-02T07:43:16;1.20;;;0.40;;
31730;SDS011;18310;55.586;12.286;2022-09-02T07:46:20;1.10;;;0.40;;
31730;SDS011;18310;55.586;12.286;2022-09-02T07:49:26;1.23;;;0.43;;
31730;SDS011;18310;55.586;12.286;2022-09-02T07:52:49;1.38;;;0.50;;
31730;SDS011;18310;55.586;12.286;2022-09-02T07:55:53;1.63;;;0.40;;
31730;SDS011;18310;55.586;12.286;2022-09-02T07:58:56;7.03;;;0.70;;
31730;SDS011;18310;55.586;12.286;2022-09-02T08:02:00;1.08;;;0.50;;
31730;SDS011;18310;55.586;12.286;2022-09-02T08:05:05;1.85;;;0.70;;
31730;SDS011;18310;55.586;12.286;2022-09-02T08:08:09;2.05;;;0.68;;
31730;SDS011;18310;55.586;12.286;2022-09-02T08:14:18;1.73;;;0.60;;
31730;SDS011;18310;55.586;12.286;2022-09-02T08:17:26;1.48;;;0.50;;
31730;SDS011;18310;55.586;12.286;2022-09-02T08:20:31;2.05;;;0.60;;
31730;SDS011;18310;55.586;12.286;2022-09-02T08:23:35;1.45;;;0.40;;
31730;SDS011;18310;55.586;12.286;2022-09-02T08:26:40;1.13;;;0.50;;
31730;SDS011;18310;55.586;12.286;2022-09-02T08:29:44;0.98;;;0.43;;
31730;SDS011;18310;55.586;12.286;2022-09-02T08:32:47;1.27;;;0.50;;
31730;SDS011;18310;55.586;12.286;2022-09-02T08:35:52;1.48;;;0.40;;
31730;SDS011;18310;55.586;12.286;2022-09-02T08:38:55;2.33;;;0.47;;
31730;SDS011;18310;55.586;12.286;2022-09-02T08:42:01;2.28;;;0.60;;
31730;SDS011;18310;55.586;12.286;2022-09-02T08:45:17;1.40;;;0.47;;
31730;SDS011;18310;55.586;12.286;2022-09-02T08:48:28;1.92;;;0.30;;
31730;SDS011;18310;55.586;12.286;2022-09-02T08:51:42;1.13;;;0.32;;
31730;SDS011;18310;55.586;12.286;2022-09-02T08:54:54;1.73;;;0.60;;
31730;SDS011;18310;55.586;12.286;2022-09-02T09:01:05;2.05;;;0.43;;
31730;SDS011;18310;55.586;12.286;2022-09-02T09:04:17;0.98;;;0.38;;
31730;SDS011;18310;55.586;12.286;2022-09-02T09:07:34;1.63;;;0.50;;
31730;SDS011;18310;55.586;12.286;2022-09-02T09:10:47;0.85;;;0.35;;
31730;SDS011;18310;55.586;12.286;2022-09-02T09:14:06;0.43;;;0.30;;
31730;SDS011;18310;55.586;12.286;2022-09-02T09:17:27;0.57;;;0.20;;
31730;SDS011;18310;55.586;12.286;2022-09-02T09:20:39;1.73;;;0.60;;
31730;SDS011;18310;55.586;12.286;2022-09-02T09:23:46;2.75;;;0.52;;
31730;SDS011;18310;55.586;12.286;2022-09-02T09:26:51;2.15;;;0.68;;
31730;SDS011;18310;55.586;12.286;2022-09-02T09:29:56;4.63;;;2.10;;
31730;SDS011;18310;55.586;12.286;2022-09-02T09:32:59;2.80;;;1.00;;
31730;SDS011;18310;55.586;12.286;2022-09-02T09:36:05;1.00;;;0.40;;
31730;SDS011;18310;55.586;12.286;2022-09-02T09:39:19;2.58;;;0.90;;
31730;SDS011;18310;55.586;12.286;2022-09-02T09:42:29;1.83;;;0.50;;
31730;SDS011;18310;55.586;12.286;2022-09-02T09:45:36;1.45;;;0.50;;
31730;SDS011;18310;55.586;12.286;2022-09-02T09:48:46;1.33;;;0.50;;
31730;SDS011;18310;55.586;12.286;2022-09-02T09:51:52;9.27;;;0.60;;
31730;SDS011;18310;55.586;12.286;2022-09-02T09:55:09;2.50;;;0.60;;
31730;SDS011;18310;55.586;12.286;2022-09-02T09:58:26;1.75;;;0.82;;
31730;SDS011;18310;55.586;12.286;2022-09-02T10:01:35;2.22;;;0.57;;
31730;SDS011;18310;55.586;12.286;2022-09-02T10:04:38;1.73;;;0.47;;
31730;SDS011;18310;55.586;12.286;2022-09-02T10:07:51;1.05;;;0.50;;
31730;SDS011;18310;55.586;12.286;2022-09-02T10:11:00;2.08;;;0.68;;
31730;SDS011;18310;55.586;12.286;2022-09-02T10:14:07;2.90;;;1.00;;
31730;SDS011;18310;55.586;12.286;2022-09-02T10:17:25;7.03;;;1.10;;
31730;SDS011;18310;55.586;12.286;2022-09-02T10:20:43;1.38;;;0.60;;
31730;SDS011;18310;55.586;12.286;2022-09-02T10:24:21;3.83;;;0.47;;
31730;SDS011;18310;55.586;12.286;2022-09-02T10:27:48;3.28;;;0.50;;
31730;SDS011;18310;55.586;12.286;2022-09-02T10:31:07;1.80;;;0.70;;
31730;SDS011;18310;55.586;12.286;2022-09-02T10:34:22;2.25;;;0.60;;
31730;SDS011;18310;55.586;12.286;2022-09-02T10:37:38;1.55;;;0.50;;
31730;SDS011;18310;55.586;12.286;2022-09-02T10:41:18;1.00;;;0.40;;
31730;SDS011;18310;55.586;12.286;2022-09-02T10:44:51;9.15;;;0.70;;
31730;SDS011;18310;55.586;12.286;2022-09-02T10:48:11;1.35;;;0.60;;
31730;SDS011;18310;55.586;12.286;2022-09-02T10:51:33;0.97;;;0.40;;
31730;SDS011;18310;55.586;12.286;2022-09-02T10:54:51;1.30;;;0.60;;
31730;SDS011;18310;55.586;12.286;2022-09-02T10:58:13;1.10;;;0.50;;
31730;SDS011;18310;55.586;12.286;2022-09-02T11:01:28;1.30;;;0.60;;
31730;SDS011;18310;55.586;12.286;2022-09-02T11:04:42;3.20;;;0.50;;
31730;SDS011;18310;55.586;12.286;2022-09-02T11:07:56;2.08;;;0.90;;
31730;SDS011;18310;55.586;12.286;2022-09-02T11:11:10;2.28;;;0.90;;
31730;SDS011;18310;55.586;12.286;2022-09-02T11:14:22;2.30;;;0.73;;
31730;SDS011;18310;55.586;12.286;2022-09-02T11:17:37;1.30;;;0.50;;
31730;SDS011;18310;55.586;12.286;2022-09-02T11:20:52;1.27;;;0.60;;
31730;SDS011;18310;55.586;12.286;2022-09-02T11:24:07;1.38;;;0.50;;
31730;SDS011;18310;55.586;12.286;2022-09-02T11:27:20;1.77;;;0.70;;
31730;SDS011;18310;55.586;12.286;2022-09-02T11:30:44;1.38;;;0.68;;
31730;SDS011;18310;55.586;12.286;2022-09-02T11:33:59;1.45;;;0.60;;
31730;SDS011;18310;55.586;12.286;2022-09-02T11:37:14;4.35;;;0.50;;
31730;SDS011;18310;55.586;12.286;2022-09-02T11:40:35;1.92;;;0.65;;
31730;SDS011;18310;55.586;12.286;2022-09-02T11:48:04;2.47;;;0.57;;
31730;SDS011;18310;55.586;12.286;2022-09-02T11:51:46;2.30;;;0.60;;
31730;SDS011;18310;55.586;12.286;2022-09-02T11:55:14;2.88;;;0.40;;
31730;SDS011;18310;55.586;12.286;2022-09-02T11:58:36;0.93;;;0.40;;
31730;SDS011;18310;55.586;12.286;2022-09-02T12:01:46;1.40;;;0.50;;
31730;SDS011;18310;55.586;12.286;2022-09-02T12:04:57;1.17;;;0.55;;
31730;SDS011;18310;55.586;12.286;2022-09-02T12:19:44;1.73;;;0.52;;
31730;SDS011;18310;55.586;12.286;2022-09-02T12:22:50;1.92;;;0.52;;
31730;SDS011;18310;55.586;12.286;2022-09-02T12:25:56;1.42;;;0.52;;
31730;SDS011;18310;55.586;12.286;2022-09-02T12:39:51;0.90;;;0.50;;
31730;SDS011;18310;55.586;12.286;2022-09-02T12:43:03;1.42;;;0.50;;
31730;SDS011;18310;55.586;12.286;2022-09-02T12:46:21;2.47;;;0.60;;
31730;SDS011;18310;55.586;12.286;2022-09-02T12:49:44;1.00;;;0.43;;
31730;SDS011;18310;55.586;12.286;2022-09-02T12:56:36;1.13;;;0.43;;
31730;SDS011;18310;55.586;12.286;2022-09-02T12:59:50;0.68;;;0.40;;
31730;SDS011;18310;55.586;12.286;2022-09-02T13:03:16;1.02;;;0.40;;
31730;SDS011;18310;55.586;12.286;2022-09-02T13:06:44;1.00;;;0.45;;
31730;SDS011;18310;55.586;12.286;2022-09-02T13:10:20;1.25;;;0.40;;
31730;SDS011;18310;55.586;12.286;2022-09-02T13:14:22;1.42;;;0.60;;
31730;SDS011;18310;55.586;12.286;2022-09-02T13:18:06;1.27;;;0.35;;
31730;SDS011;18310;55.586;12.286;2022-09-02T13:26:04;1.67;;;0.52;;
31730;SDS011;18310;55.586;12.286;2022-09-02T13:30:05;1.13;;;0.40;;
31730;SDS011;18310;55.586;12.286;2022-09-02T13:33:19;0.73;;;0.40;;
31730;SDS011;18310;55.586;12.286;2022-09-02T13:36:25;1.33;;;0.40;;
31730;SDS011;18310;55.586;12.286;2022-09-02T13:39:33;1.08;;;0.50;;
31730;SDS011;18310;55.586;12.286;2022-09-02T13:42:45;2.17;;;0.57;;
31730;SDS011;18310;55.586;12.286;2022-09-02T13:45:50;1.30;;;0.40;;
31730;SDS011;18310;55.586;12.286;2022-09-02T13:48:58;1.13;;;0.43;;
31730;SDS011;18310;55.586;12.286;2022-09-02T13:52:02;1.50;;;0.60;;
31730;SDS011;18310;55.586;12.286;2022-09-02T13:55:17;1.10;;;0.50;;
31730;SDS011;18310;55.586;12.286;2022-09-02T13:58:31;1.02;;;0.52;;
31730;SDS011;18310;55.586;12.286;2022-09-02T14:01:39;2.10;;;0.60;;
31730;SDS011;18310;55.586;12.286;2022-09-02T14:04:44;1.40;;;0.50;;
31730;SDS011;18310;55.586;12.286;2022-09-02T14:07:50;1.55;;;0.38;;
31730;SDS011;18310;55.586;12.286;2022-09-02T14:10:58;0.50;;;0.30;;
31730;SDS011;18310;55.586;12.286;2022-09-02T14:14:11;2.05;;;0.50;;
31730;SDS011;18310;55.586;12.286;2022-09-02T14:17:17;0.55;;;0.25;;
31730;SDS011;18310;55.586;12.286;2022-09-02T14:20:26;0.80;;;0.40;;
31730;SDS011;18310;55.586;12.286;2022-09-02T14:23:30;0.93;;;0.47;;
31730;SDS011;18310;55.586;12.286;2022-09-02T14:26:35;0.75;;;0.38;;
31730;SDS011;18310;55.586;12.286;2022-09-02T14:29:43;3.05;;;0.60;;
31730;SDS011;18310;55.586;12.286;2022-09-02T14:32:49;1.00;;;0.40;;
31730;SDS011;18310;55.586;12.286;2022-09-02T14:36:45;0.98;;;0.50;;
31730;SDS011;18310;55.586;12.286;2022-09-02T14:39:51;1.25;;;0.40;;
31730;SDS011;18310;55.586;12.286;2022-09-02T14:43:09;1.20;;;0.50;;
31730;SDS011;18310;55.586;12.286;2022-09-02T14:46:23;1.63;;;0.70;;
31730;SDS011;18310;55.586;12.286;2022-09-02T14:49:33;0.98;;;0.43;;
31730;SDS011;18310;55.586;12.286;2022-09-02T14:52:47;0.80;;;0.40;;
31730;SDS011;18310;55.586;12.286;2022-09-02T14:55:58;1.25;;;0.40;;
31730;SDS011;18310;55.586;12.286;2022-09-02T14:59:02;3.25;;;0.75;;
31730;SDS011;18310;55.586;12.286;2022-09-02T15:02:06;0.77;;;0.40;;
31730;SDS011;18310;55.586;12.286;2022-09-02T15:05:10;0.93;;;0.40;;
31730;SDS011;18310;55.586;12.286;2022-09-02T15:08:17;1.45;;;0.60;;
31730;SDS011;18310;55.586;12.286;2022-09-02T15:11:23;1.17;;;0.30;;
31730;SDS011;18310;55.586;12.286;2022-09-02T15:14:27;0.90;;;0.30;;
31730;SDS011;18310;55.586;12.286;2022-09-02T15:17:31;0.85;;;0.38;;
31730;SDS011;18310;55.586;12.286;2022-09-02T15:20:35;1.23;;;0.50;;
31730;SDS011;18310;55.586;12.286;2022-09-02T15:23:40;1.83;;;0.85;;
31730;SDS011;18310;55.586;12.286;2022-09-02T15:26:51;4.47;;;0.60;;
31730;SDS011;18310;55.586;12.286;2022-09-02T15:29:54;0.95;;;0.40;;
31730;SDS011;18310;55.586;12.286;2022-09-02T15:33:01;1.00;;;0.40;;
31730;SDS011;18310;55.586;12.286;2022-09-02T15:36:06;1.95;;;0.50;;
31730;SDS011;18310;55.586;12.286;2022-09-02T15:39:13;1.70;;;0.50;;
31730;SDS011;18310;55.586;12.286;2022-09-02T15:42:19;1.75;;;0.32;;
31730;SDS011;18310;55.586;12.286;2022-09-02T15:45:23;1.40;;;0.70;;
31730;SDS011;18310;55.586;12.286;2022-09-02T15:48:30;2.03;;;0.60;;
31730;SDS011;18310;55.586;12.286;2022-09-02T15:51:34;1.20;;;0.40;;
31730;SDS011;18310;55.586;12.286;2022-09-02T15:54:42;3.53;;;0.95;;
31730;SDS011;18310;55.586;12.286;2022-09-02T15:57:46;1.38;;;0.63;;
31730;SDS011;18310;55.586;12.286;2022-09-02T16:00:50;1.20;;;0.50;;
31730;SDS011;18310;55.586;12.286;2022-09-02T16:03:54;1.85;;;0.73;;
31730;SDS011;18310;55.586;12.286;2022-09-02T16:06:59;1.23;;;0.40;;
31730;SDS011;18310;55.586;12.286;2022-09-02T16:10:05;3.63;;;0.60;;
31730;SDS011;18310;55.586;12.286;2022-09-02T16:13:10;1.95;;;0.75;;
31730;SDS011;18310;55.586;12.286;2022-09-02T16:19:19;1.13;;;0.45;;
31730;SDS011;18310;55.586;12.286;2022-09-02T16:22:30;1.27;;;0.50;;
31730;SDS011;18310;55.586;12.286;2022-09-02T16:25:36;2.00;;;0.75;;
31730;SDS011;18310;55.586;12.286;2022-09-02T16:28:41;1.55;;;0.68;;
31730;SDS011;18310;55.586;12.286;2022-09-02T16:31:47;2.80;;;0.57;;
31730;SDS011;18310;55.586;12.286;2022-09-02T16:35:13;1.48;;;0.57;;
31730;SDS011;18310;55.586;12.286;2022-09-02T16:38:16;1.20;;;0.65;;
31730;SDS011;18310;55.586;12.286;2022-09-02T16:41:23;1.37;;;0.57;;
31730;SDS011;18310;55.586;12.286;2022-09-02T16:44:28;2.45;;;0.80;;
31730;SDS011;18310;55.586;12.286;2022-09-02T16:47:35;2.28;;;1.00;;
31730;SDS011;18310;55.586;12.286;2022-09-02T16:50:38;2.13;;;0.82;;
31730;SDS011;18310;55.586;12.286;2022-09-02T16:53:43;4.95;;;0.85;;
31730;SDS011;18310;55.586;12.286;2022-09-02T16:56:48;1.98;;;0.60;;
31730;SDS011;18310;55.586;12.286;2022-09-02T16:59:51;1.38;;;0.45;;
31730;SDS011;18310;55.586;12.286;2022-09-02T17:02:55;1.40;;;0.63;;
31730;SDS011;18310;55.586;12.286;2022-09-02T17:05:59;1.88;;;0.80;;
31730;SDS011;18310;55.586;12.286;2022-09-02T17:09:03;1.70;;;0.70;;
31730;SDS011;18310;55.586;12.286;2022-09-02T17:12:08;1.00;;;0.47;;
31730;SDS011;18310;55.586;12.286;2022-09-02T17:15:13;1.63;;;0.60;;
31730;SDS011;18310;55.586;12.286;2022-09-02T17:18:16;1.63;;;0.60;;
31730;SDS011;18310;55.586;12.286;2022-09-02T17:21:21;1.30;;;0.63;;
31730;SDS011;18310;55.586;12.286;2022-09-02T17:24:28;1.92;;;0.52;;
31730;SDS011;18310;55.586;12.286;2022-09-02T17:27:33;0.95;;;0.52;;
31730;SDS011;18310;55.586;12.286;2022-09-02T17:30:37;1.75;;;0.75;;
31730;SDS011;18310;55.586;12.286;2022-09-02T17:33:41;1.25;;;0.68;;
31730;SDS011;18310;55.586;12.286;2022-09-02T17:36:45;1.08;;;0.40;;
31730;SDS011;18310;55.586;12.286;2022-09-02T17:39:49;1.45;;;0.50;;
31730;SDS011;18310;55.586;12.286;2022-09-02T17:42:54;1.60;;;0.60;;
31730;SDS011;18310;55.586;12.286;2022-09-02T17:46:03;1.38;;;0.60;;
31730;SDS011;18310;55.586;12.286;2022-09-02T17:49:07;4.55;;;0.77;;
31730;SDS011;18310;55.586;12.286;2022-09-02T17:52:18;1.33;;;0.57;;
31730;SDS011;18310;55.586;12.286;2022-09-02T17:55:24;1.60;;;0.60;;
31730;SDS011;18310;55.586;12.286;2022-09-02T17:58:29;2.78;;;0.63;;
31730;SDS011;18310;55.586;12.286;2022-09-02T18:01:56;1.83;;;0.65;;
31730;SDS011;18310;55.586;12.286;2022-09-02T18:05:38;2.42;;;0.70;;
31730;SDS011;18310;55.586;12.286;2022-09-02T18:09:05;1.70;;;0.55;;
31730;SDS011;18310;55.586;12.286;2022-09-02T18:12:11;1.75;;;0.60;;
31730;SDS011;18310;55.586;12.286;2022-09-02T18:15:17;2.10;;;0.82;;
31730;SDS011;18310;55.586;12.286;2022-09-02T18:18:20;1.95;;;0.70;;
31730;SDS011;18310;55.586;12.286;2022-09-02T18:21:28;1.83;;;0.50;;
31730;SDS011;18310;55.586;12.286;2022-09-02T18:24:50;2.58;;;0.50;;
31730;SDS011;18310;55.586;12.286;2022-09-02T18:28:11;3.40;;;0.85;;
31730;SDS011;18310;55.586;12.286;2022-09-02T18:31:34;2.40;;;0.80;;
31730;SDS011;18310;55.586;12.286;2022-09-02T18:34:47;3.70;;;0.55;;
31730;SDS011;18310;55.586;12.286;2022-09-02T18:38:07;5.95;;;0.80;;
31730;SDS011;18310;55.586;12.286;2022-09-02T18:41:33;1.40;;;0.50;;
31730;SDS011;18310;55.586;12.286;2022-09-02T18:44:52;1.88;;;0.63;;
31730;SDS011;18310;55.586;12.286;2022-09-02T18:48:11;2.95;;;0.80;;
31730;SDS011;18310;55.586;12.286;2022-09-02T18:51:19;1.77;;;0.73;;
31730;SDS011;18310;55.586;12.286;2022-09-02T18:54:36;1.42;;;0.45;;
31730;SDS011;18310;55.586;12.286;2022-09-02T18:57:47;3.53;;;0.60;;
31730;SDS011;18310;55.586;12.286;2022-09-02T19:01:01;1.33;;;0.45;;
31730;SDS011;18310;55.586;12.286;2022-09-02T19:04:16;1.85;;;0.57;;
31730;SDS011;18310;55.586;12.286;2022-09-02T19:07:20;1.38;;;0.50;;
31730;SDS011;18310;55.586;12.286;2022-09-02T19:10:41;1.35;;;0.45;;
31730;SDS011;18310;55.586;12.286;2022-09-02T19:13:45;2.50;;;0.57;;
31730;SDS011;18310;55.586;12.286;2022-09-02T19:16:52;1.23;;;0.40;;
31730;SDS011;18310;55.586;12.286;2022-09-02T19:19:59;1.73;;;0.43;;
31730;SDS011;18310;55.586;12.286;2022-09-02T19:23:03;2.42;;;0.50;;
31730;SDS011;18310;55.586;12.286;2022-09-02T19:26:12;3.95;;;0.73;;
31730;SDS011;18310;55.586;12.286;2022-09-02T19:29:15;2.22;;;0.50;;
31730;SDS011;18310;55.586;12.286;2022-09-02T19:32:26;2.38;;;0.63;;